Weather reports worldwide

Advertisment
Barcelona, Spain (8180): temperature & dewpoint: 05.07.2020 12:00:00 - 11.07.2020 12:00:00 (CEST)Barcelona, Spain (8180): wind speed & gusts: 05.07.2020 12:00:00 - 11.07.2020 12:00:00 (CEST)Barcelona, Spain (8180): wind direction: 05.07.2020 12:00:00 - 11.07.2020 12:00:00 (CEST)Barcelona, Spain (8180): precipitation: 05.07.2020 12:00:00 - 11.07.2020 12:00:00 (CEST)
Date & Time tt [°C] td [°C] ff [km/h] ff [kn] fx [km/h] fx [kn] dd rr [mm]
11.07.2020 12:00:00 27,2 21,0 12 6 18 10 S 0,0
11.07.2020 11:00:00 27,1 20,2 9 5 14 7 S 0,0
11.07.2020 10:00:00 26,4 18,5 8 4 11 6 SSW 0,0
11.07.2020 09:00:00 25,2 17,9 6 3 10 5 NNE 0,0
11.07.2020 08:00:00 24,2 18,4 5 3 16 9 N -
11.07.2020 07:00:00 22,6 17,7 8 4 16 9 N 0,0
11.07.2020 06:00:00 22,4 17,1 10 5 15 8 N 0,0
11.07.2020 05:00:00 22,6 17,3 7 4 14 8 N 0,0
11.07.2020 04:00:00 22,9 18,5 7 4 12 6 N 0,0
11.07.2020 03:00:00 23,5 18,4 8 4 15 8 NNE 0,0
11.07.2020 02:00:00 24,0 19,9 8 4 15 8 ENE -
11.07.2020 01:00:00 24,5 21,6 11 6 14 8 E 0,0
11.07.2020 00:00:00 25,1 20,3 7 4 8 5 ESE 0,0
10.07.2020 23:00:00 25,2 18,6 5 3 9 5 NE 0,0
10.07.2020 22:00:00 25,1 19,7 6 4 18 10 E 0,0
10.07.2020 21:00:00 26,1 19,3 14 8 18 10 ESE 0,0
10.07.2020 20:00:00 27,6 18,6 9 5 13 7 E -
10.07.2020 19:00:00 28,1 18,8 11 6 17 9 ESE 0,0
10.07.2020 18:00:00 28,7 16,0 13 7 28 15 E 0,0
10.07.2020 17:00:00 25,3 19,9 22 12 35 19 ENE 0,0
10.07.2020 16:00:00 25,9 19,6 25 13 29 16 E 0,0
10.07.2020 15:00:00 26,9 21,4 15 8 33 18 SE 0,0
10.07.2020 14:00:00 26,7 22,7 16 9 - - E -
10.07.2020 13:00:00 25,9 23,0 16 9 21 11 E 0,0
10.07.2020 12:00:00 26,2 22,9 18 10 23 12 E 0,0
10.07.2020 11:00:00 26,3 21,1 9 5 13 7 SE 0,0
10.07.2020 10:00:00 25,1 19,5 5 3 19 10 N 0,0
10.07.2020 09:00:00 24,2 21,9 9 5 18 10 NNE 0,0
10.07.2020 08:00:00 23,8 19,7 9 5 16 8 NNE -
10.07.2020 07:00:00 24,2 18,2 2 1 10 6 ENE 0,0
10.07.2020 06:00:00 23,4 17,4 8 4 22 12 N 0,0
10.07.2020 05:00:00 23,5 18,2 6 3 10 6 N 0,0
10.07.2020 04:00:00 23,9 19,8 1 0 8 4 ESE 0,0
10.07.2020 03:00:00 23,9 21,4 0 0 0 0 N 0,0
10.07.2020 02:00:00 24,0 21,5 0 0 8 4 N -
10.07.2020 01:00:00 24,6 22,5 5 3 10 5 S 0,0
10.07.2020 00:00:00 24,9 21,6 8 4 10 5 SE 0,0
09.07.2020 23:00:00 25,0 20,9 9 5 14 8 E 0,0
09.07.2020 22:00:00 24,9 20,8 10 6 12 7 E 0,0
09.07.2020 21:00:00 25,7 20,7 10 5 12 6 E 0,0
09.07.2020 20:00:00 26,9 21,4 8 4 15 8 SE -
09.07.2020 19:00:00 27,2 20,5 9 5 17 9 S 0,0
09.07.2020 18:00:00 26,6 20,0 14 8 22 12 SSW 0,0
09.07.2020 17:00:00 26,7 21,0 18 10 23 13 SSW 0,0
09.07.2020 16:00:00 27,3 23,3 14 8 21 12 SSE 0,0
09.07.2020 15:00:00 27,5 24,0 16 9 19 10 ESE 0,0
09.07.2020 14:00:00 26,3 22,6 17 9 22 12 SSW -
09.07.2020 13:00:00 26,2 22,9 19 10 22 12 SSW 0,0
09.07.2020 12:00:00 27,5 22,9 10 5 15 8 S 0,0
09.07.2020 11:00:00 26,3 22,4 12 6 16 9 S 0,0
09.07.2020 10:00:00 26,8 21,8 10 6 15 8 SSE 0,0
09.07.2020 09:00:00 25,9 20,9 0 0 8 4 ENE 0,0
09.07.2020 08:00:00 24,1 21,1 4 2 14 8 NNW -
09.07.2020 07:00:00 22,9 20,1 5 3 13 7 NNE 0,0
09.07.2020 06:00:00 23,5 20,9 7 4 13 7 W 0,0
09.07.2020 05:00:00 23,7 21,0 9 5 15 8 WSW 0,0
09.07.2020 04:00:00 23,8 20,7 6 3 13 7 W 0,0
09.07.2020 03:00:00 23,9 20,1 8 5 21 11 W 0,0
09.07.2020 02:00:00 24,1 20,9 3 1 8 4 E -
09.07.2020 01:00:00 24,1 19,6 0 0 8 5 WSW 0,0
09.07.2020 00:00:00 24,7 19,1 3 2 13 7 NNE 0,0
08.07.2020 23:00:00 24,7 19,3 9 5 18 10 W 0,0
08.07.2020 22:00:00 24,2 21,7 14 8 22 12 SW 0,0
08.07.2020 21:00:00 24,2 20,9 16 9 21 12 SSW 0,0
08.07.2020 20:00:00 25,4 20,4 10 5 16 9 S -
08.07.2020 19:00:00 26,0 20,5 12 7 22 12 SSE 0,0
08.07.2020 18:00:00 26,2 22,1 13 7 22 12 S 0,0
08.07.2020 17:00:00 26,4 22,3 13 7 23 12 SSE 0,0
08.07.2020 16:00:00 26,3 21,1 16 9 23 13 S 0,0
08.07.2020 15:00:00 26,3 21,5 17 9 23 12 S 0,0
08.07.2020 14:00:00 27,0 22,2 14 7 20 11 SSE -
08.07.2020 13:00:00 26,6 22,9 13 7 18 10 SE 0,0
08.07.2020 12:00:00 26,9 21,4 10 5 19 10 SE 0,0
08.07.2020 11:00:00 26,4 21,4 16 9 18 10 ESE 0,0
08.07.2020 10:00:00 26,6 21,8 7 4 12 7 SE 0,0
08.07.2020 09:00:00 25,9 21,8 3 2 8 4 SE 0,0
08.07.2020 08:00:00 24,3 21,1 3 2 7 4 ESE -
08.07.2020 07:00:00 22,6 20,7 0 0 4 2 N 0,0
08.07.2020 06:00:00 22,4 19,9 3 2 5 3 NNW 0,0
08.07.2020 05:00:00 22,2 20,1 0 0 4 2 N 0,0
08.07.2020 04:00:00 22,6 20,5 3 1 10 5 ENE 0,0
08.07.2020 03:00:00 22,9 20,8 6 4 10 5 W 0,0
08.07.2020 02:00:00 22,9 20,8 6 3 10 6 WSW -
08.07.2020 01:00:00 22,8 20,7 2 1 6 3 SW 0,0
08.07.2020 00:00:00 23,0 20,7 2 1 9 5 SE 0,0
07.07.2020 23:00:00 23,2 20,7 5 3 14 8 ESE 0,0
07.07.2020 22:00:00 23,5 21,0 11 6 16 9 ESE 0,0
07.07.2020 21:00:00 23,9 21,4 13 7 19 11 ESE 0,0
07.07.2020 20:00:00 24,5 21,6 17 9 27 15 SE -
07.07.2020 19:00:00 25,2 21,7 15 8 23 12 SSE 0,0
07.07.2020 18:00:00 25,6 21,7 14 8 26 14 SSE 0,0
07.07.2020 17:00:00 25,9 22,0 16 8 22 12 SSE 0,0
07.07.2020 16:00:00 25,7 21,6 15 8 23 13 S 0,0
07.07.2020 15:00:00 25,8 20,8 14 8 22 12 SSE 0,0
07.07.2020 14:00:00 26,0 20,5 14 7 20 11 S -
07.07.2020 13:00:00 26,1 20,0 12 7 19 10 S 0,0
07.07.2020 12:00:00 25,8 19,2 12 6 19 10 S 0,0
07.07.2020 11:00:00 26,0 19,8 16 8 18 10 SE 0,0
07.07.2020 10:00:00 24,6 19,8 11 6 17 9 SE 0,0
07.07.2020 09:00:00 23,4 20,3 8 5 11 6 SW 0,0
07.07.2020 08:00:00 22,7 20,8 0 0 8 5 N -
07.07.2020 07:00:00 23,2 21,4 2 1 15 8 W 0,0
07.07.2020 06:00:00 23,2 21,4 7 4 11 6 NNE 0,0
07.07.2020 05:00:00 23,4 22,2 0 0 0 0 N 0,0
07.07.2020 04:00:00 23,6 22,4 0 0 13 7 N 0,0
07.07.2020 03:00:00 23,6 22,2 9 5 13 7 SSW 0,0
07.07.2020 02:00:00 23,9 22,5 8 4 11 6 S -
07.07.2020 01:00:00 23,7 22,3 8 5 16 9 S 0,0
07.07.2020 00:00:00 23,9 22,5 8 5 16 8 S 0,0
06.07.2020 23:00:00 24,0 22,4 10 5 16 9 S 0,0
06.07.2020 22:00:00 24,3 22,7 10 6 18 10 SSE 0,0
06.07.2020 21:00:00 24,6 23,0 16 9 21 11 SE 0,0
06.07.2020 20:00:00 25,3 23,6 18 10 25 13 SE -
06.07.2020 19:00:00 27,0 24,1 17 9 21 11 SE 0,0
06.07.2020 18:00:00 27,1 24,0 18 10 21 11 ESE 0,0
06.07.2020 17:00:00 27,5 24,4 17 9 21 11 ESE 0,0
06.07.2020 16:00:00 28,1 24,5 15 8 19 10 ESE 0,0
06.07.2020 15:00:00 28,0 24,2 13 7 18 10 SE 0,0
06.07.2020 14:00:00 28,0 22,7 10 6 14 8 SE -
06.07.2020 13:00:00 27,6 23,4 13 7 19 10 ESE 0,0
06.07.2020 12:00:00 27,9 23,3 9 5 14 7 ESE 0,0
06.07.2020 11:00:00 27,4 21,7 9 5 16 9 SSE 0,0
06.07.2020 10:00:00 27,4 20,5 5 3 10 6 SE 0,0
06.07.2020 09:00:00 26,2 20,3 5 3 8 5 S 0,0
06.07.2020 08:00:00 25,2 19,6 1 0 8 4 N -
06.07.2020 07:00:00 22,6 19,3 3 2 7 4 N 0,0
06.07.2020 06:00:00 22,1 20,2 1 1 4 2 NNE 0,0
06.07.2020 05:00:00 22,9 20,5 2 1 5 3 NW 0,0
06.07.2020 04:00:00 23,5 20,7 4 2 5 3 ENE 0,0
06.07.2020 03:00:00 23,8 20,1 1 0 5 3 SSW 0,0
06.07.2020 02:00:00 24,0 19,9 3 2 5 3 E -
06.07.2020 01:00:00 25,0 19,1 1 1 11 6 NNE 0,0
06.07.2020 00:00:00 25,3 19,0 10 6 14 8 W 0,0
05.07.2020 23:00:00 25,4 20,7 6 3 13 7 WSW 0,0
05.07.2020 22:00:00 25,7 20,7 9 5 20 11 SW 0,0
05.07.2020 21:00:00 26,6 18,5 13 7 22 12 SW 0,0
05.07.2020 20:00:00 27,6 18,0 15 8 29 16 SW -
05.07.2020 19:00:00 27,9 18,0 15 8 35 19 SW 0,0
05.07.2020 18:00:00 27,8 17,9 19 11 32 18 SW 0,0
05.07.2020 17:00:00 27,1 18,9 23 12 32 17 SSW 0,0
05.07.2020 16:00:00 25,7 20,1 26 14 32 18 SSW 0,0
05.07.2020 15:00:00 25,6 19,7 22 12 29 16 SSW 0,0
05.07.2020 14:00:00 25,1 22,2 23 13 27 15 SSW -
05.07.2020 13:00:00 24,8 22,5 23 12 28 15 SSW 0,0
05.07.2020 12:00:00 25,2 22,3 19 10 24 13 SSW 0,0

tt = temperature
td = dewpoint
ff = wind speed
fx = gusts
dd = wind direction
rr = precipitation

Next stations